METAR Data
IDs: Format: Raw Decoded Include TAF

Data at: 1942 UTC 21 Sep 2021

LSZC 211920Z AUTO 29003KT 9999 SCT044 BKN050 15/12 Q1028